Time;durP1;ratioP1;P1;durP2;ratioP2;P2;SDS_P1;SDS_P2;PMS_P1;PMS_P2;Temp;Humidity;BMP_temperature;BMP_pressure;BME280_temperature;BME280_humidity;BME280_pressure;Samples;Min_cycle;Max_cycle;Signal;HPM_P1;HPM_P2
2022/07/14 00:01:46;;;;;;;6.37;4.07;;;;;;;16.06;87.06;100449.25;5026032;28;20281;-59
2022/07/14 00:04:17;;;;;;;5.93;4.10;;;;;;;16.12;87.77;100478.00;5025429;28;20657;-59
2022/07/14 00:06:51;;;;;;;7.47;4.40;;;;;;;16.23;87.40;100473.22;5026722;28;20280;-59
2022/07/14 00:09:22;;;;;;;5.43;4.17;;;;;;;16.30;87.75;100473.84;5025802;28;20311;-58
2022/07/14 00:11:52;;;;;;;8.70;4.93;;;;;;;16.30;87.25;100484.38;5026241;28;20348;-58
2022/07/14 00:14:23;;;;;;;8.40;4.00;;;;;;;16.47;87.36;100468.78;5026109;28;20506;-57
2022/07/14 00:16:55;;;;;;;8.13;4.30;;;;;;;16.53;86.45;100478.28;5025852;28;20327;-57
2022/07/14 00:19:27;;;;;;;5.60;4.53;;;;;;;16.66;85.91;100476.88;5025188;28;20284;-58
2022/07/14 00:21:58;;;;;;;10.67;4.23;;;;;;;16.72;84.68;100476.63;5024518;28;20338;-58
2022/07/14 00:24:29;;;;;;;6.50;4.40;;;;;;;16.79;84.25;100457.03;5025823;28;20600;-58
2022/07/14 00:26:59;;;;;;;5.97;4.60;;;;;;;16.94;84.45;100455.59;5026033;28;20352;-57
2022/07/14 00:29:30;;;;;;;8.30;3.80;;;;;;;16.91;84.10;100465.41;5025934;28;20771;-59
2022/07/14 00:32:02;;;;;;;12.83;4.60;;;;;;;16.83;84.12;100467.50;5025312;28;20628;-56
2022/07/14 00:34:33;;;;;;;14.60;4.83;;;;;;;16.74;84.55;100431.72;5026283;28;20426;-59
2022/07/14 00:37:04;;;;;;;8.80;4.63;;;;;;;17.16;83.90;100460.88;5025556;28;20281;-56
2022/07/14 00:42:29;;;;;;;10.40;5.03;;;;;;;17.46;83.73;100463.19;5024186;28;20359;-58
2022/07/14 00:45:00;;;;;;;8.80;4.83;;;;;;;17.47;82.23;100459.59;5025445;28;20612;-57
2022/07/14 00:47:33;;;;;;;7.03;5.13;;;;;;;17.52;83.24;100447.06;5025778;28;20319;-58
2022/07/14 00:50:05;;;;;;;5.30;3.60;;;;;;;17.56;81.04;100453.94;5025817;28;20285;-58
2022/07/14 00:52:43;;;;;;;7.80;4.63;;;;;;;17.68;82.11;100442.84;5025510;28;20304;-58
2022/07/14 00:55:15;;;;;;;7.47;4.73;;;;;;;17.95;80.40;100429.41;5025466;28;20292;-57
2022/07/14 00:57:46;;;;;;;6.07;4.70;;;;;;;17.76;79.62;100428.44;5025423;28;20285;-59
2022/07/14 01:00:20;;;;;;;7.77;5.30;;;;;;;17.71;79.87;100419.88;5025379;28;20453;-59
2022/07/14 01:02:52;;;;;;;8.70;5.33;;;;;;;17.86;80.68;100435.09;5025087;28;20289;-58
2022/07/14 01:05:23;;;;;;;10.73;4.50;;;;;;;17.94;79.44;100409.16;5025503;28;20316;-57
2022/07/14 01:07:54;;;;;;;13.47;5.33;;;;;;;18.37;79.65;100435.44;5024477;28;20288;-58
2022/07/14 01:10:25;;;;;;;8.40;5.00;;;;;;;18.31;78.96;100444.53;5024835;28;20315;-57
2022/07/14 01:12:59;;;;;;;7.93;4.63;;;;;;;18.06;78.06;100442.13;5024896;28;20672;-58
2022/07/14 01:15:30;;;;;;;14.67;6.07;;;;;;;17.88;79.47;100443.81;5024741;28;20289;-56
2022/07/14 01:18:03;;;;;;;12.93;5.67;;;;;;;18.10;79.71;100439.28;5025166;28;20537;-57
2022/07/14 01:20:34;;;;;;;9.10;5.10;;;;;;;18.31;77.88;100441.88;5025218;28;20296;-57
2022/07/14 01:23:06;;;;;;;7.33;4.53;;;;;;;18.52;76.79;100443.56;5025109;28;20315;-57
2022/07/14 01:25:37;;;;;;;10.17;4.80;;;;;;;18.40;77.72;100441.47;5025318;28;20322;-59
2022/07/14 01:28:07;;;;;;;17.50;5.67;;;;;;;18.23;78.83;100438.75;5022981;28;20628;-56
2022/07/14 01:30:38;;;;;;;9.17;5.07;;;;;;;18.45;77.72;100433.34;5021409;28;20375;-57
2022/07/14 01:33:08;;;;;;;11.37;5.10;;;;;;;18.53;76.71;100429.38;5023924;28;20932;-58
2022/07/14 01:35:39;;;;;;;9.83;4.97;;;;;;;18.68;76.21;100442.84;5024737;28;20364;-55
2022/07/14 01:38:11;;;;;;;7.33;4.00;;;;;;;18.66;74.80;100445.53;5024879;28;20295;-58
2022/07/14 01:40:44;;;;;;;7.40;4.50;;;;;;;18.79;76.23;100453.78;5024361;28;20372;-58
2022/07/14 01:43:15;;;;;;;13.93;5.03;;;;;;;18.91;74.90;100453.22;5025060;28;20288;-57
2022/07/14 01:45:46;;;;;;;10.10;4.47;;;;;;;18.62;74.76;100451.03;5024695;28;20283;-57
2022/07/14 01:48:16;;;;;;;8.63;3.40;;;;;;;18.70;75.30;100439.19;5024982;28;20273;-57
2022/07/14 01:50:47;;;;;;;6.33;3.33;;;;;;;18.68;74.68;100432.25;5024190;28;20333;-58
2022/07/14 01:53:19;;;;;;;8.00;4.20;;;;;;;18.57;75.12;100437.16;5024219;28;20476;-58
2022/07/14 01:55:50;;;;;;;8.63;4.43;;;;;;;18.65;75.54;100435.91;5024611;28;20292;-57
2022/07/14 01:58:21;;;;;;;10.23;4.20;;;;;;;18.58;74.34;100433.63;5024435;28;20584;-56
2022/07/14 02:03:41;;;;;;;6.50;3.70;;;;;;;18.49;74.72;100433.09;5024272;28;20356;-58
2022/07/14 02:06:12;;;;;;;5.83;2.93;;;;;;;18.62;73.86;100419.28;5024507;28;20292;-57
2022/07/14 02:08:44;;;;;;;7.00;3.27;;;;;;;18.56;76.03;100427.53;5024787;28;20285;-56
2022/07/14 02:14:03;;;;;;;18.47;3.83;;;;;;;18.95;75.79;100428.31;5025477;28;20324;-57
2022/07/14 02:16:33;;;;;;;6.10;3.23;;;;;;;19.11;75.44;100432.84;5024651;28;20285;-58
2022/07/14 02:19:05;;;;;;;4.33;3.13;;;;;;;19.00;72.82;100419.28;5024688;28;20292;-58
2022/07/14 02:21:36;;;;;;;5.30;2.83;;;;;;;18.93;73.99;100422.22;5024777;28;20287;-57
2022/07/14 02:24:09;;;;;;;6.40;3.10;;;;;;;18.81;74.45;100406.94;5024855;28;20281;-57
2022/07/14 02:26:40;;;;;;;6.07;3.23;;;;;;;18.92;73.01;100417.88;5024590;28;20293;-55
2022/07/14 02:29:11;;;;;;;8.00;3.90;;;;;;;18.72;73.89;100410.84;5024576;28;20355;-57
2022/07/14 02:31:44;;;;;;;5.83;3.30;;;;;;;18.68;73.54;100398.69;5024288;28;20284;-57
2022/07/14 02:34:15;;;;;;;7.60;4.00;;;;;;;18.75;73.99;100378.09;5024117;28;20312;-58
2022/07/14 02:36:47;;;;;;;5.30;3.50;;;;;;;18.88;72.15;100400.41;5024335;28;20285;-57
2022/07/14 02:39:19;;;;;;;9.83;3.87;;;;;;;18.74;73.14;100397.53;5024533;28;20288;-57
2022/07/14 02:41:50;;;;;;;4.73;3.30;;;;;;;18.63;73.52;100362.78;5024262;28;20296;-57
2022/07/14 02:44:20;;;;;;;6.03;3.40;;;;;;;18.75;73.45;100391.31;5027283;28;20355;-58
2022/07/14 02:46:51;;;;;;;8.03;3.83;;;;;;;18.83;73.66;100402.44;5027669;28;20281;-57
2022/07/14 02:49:22;;;;;;;5.43;3.67;;;;;;;18.90;73.27;100401.19;5027448;28;20300;-59
2022/07/14 02:51:52;;;;;;;4.80;3.50;;;;;;;18.81;74.01;100388.41;5026956;28;20368;-57
2022/07/14 02:54:25;;;;;;;7.37;3.97;;;;;;;18.76;73.67;100390.41;5024910;28;20340;-57
2022/07/14 02:56:55;;;;;;;4.77;3.80;;;;;;;18.59;74.39;100363.88;5026486;28;20288;-57
2022/07/14 02:59:26;;;;;;;10.13;4.57;;;;;;;18.71;75.98;100318.28;5026162;28;20604;-58
2022/07/14 03:01:57;;;;;;;7.40;4.27;;;;;;;19.09;74.50;100397.63;5025848;28;20305;-57
2022/07/14 03:04:28;;;;;;;9.63;4.43;;;;;;;19.05;72.52;100398.75;5026480;28;20944;-57
2022/07/14 03:06:58;;;;;;;6.80;3.90;;;;;;;18.72;73.46;100388.78;5026771;28;20461;-57
2022/07/14 03:09:31;;;;;;;6.57;4.80;;;;;;;18.74;74.71;100397.53;5026760;28;20326;-57
2022/07/14 03:12:01;;;;;;;10.53;4.60;;;;;;;18.70;75.54;100401.28;5027211;28;20567;-56
2022/07/14 03:14:32;;;;;;;16.87;4.87;;;;;;;18.49;75.17;100392.53;5026595;28;20322;-57
2022/07/14 03:17:03;;;;;;;9.20;4.30;;;;;;;18.47;76.13;100404.97;5026962;28;20439;-56
2022/07/14 03:19:34;;;;;;;8.60;3.57;;;;;;;18.53;75.20;100402.06;5026708;28;20288;-57
2022/07/14 03:22:04;;;;;;;8.60;4.40;;;;;;;18.58;74.68;100393.91;5027288;28;20320;-57
2022/07/14 03:24:36;;;;;;;6.20;3.50;;;;;;;18.59;75.19;100395.63;5027108;28;20295;-58
2022/07/14 03:27:08;;;;;;;4.70;3.47;;;;;;;18.64;75.00;100390.97;5026935;28;20292;-57
2022/07/14 03:29:41;;;;;;;8.50;3.80;;;;;;;18.49;75.69;100388.09;5025060;28;20311;-57
2022/07/14 03:32:12;;;;;;;6.03;4.20;;;;;;;18.60;76.88;100336.50;5025118;28;20613;-58
2022/07/14 03:34:43;;;;;;;9.47;2.97;;;;;;;18.82;73.06;100390.13;5026121;28;20339;-57
2022/07/14 03:37:14;;;;;;;4.03;2.70;;;;;;;18.64;73.49;100385.66;5026405;28;20529;-59
2022/07/14 03:39:46;;;;;;;6.83;2.67;;;;;;;18.64;74.08;100383.03;5026166;28;20474;-57
2022/07/14 03:42:17;;;;;;;4.67;2.67;;;;;;;18.52;72.56;100382.69;5026180;28;20296;-57
2022/07/14 03:44:48;;;;;;;7.27;3.53;;;;;;;18.30;75.37;100388.13;5026648;28;20369;-57
2022/07/14 03:47:19;;;;;;;6.73;2.87;;;;;;;18.25;74.78;100394.56;5025959;28;20300;-56
2022/07/14 03:49:49;;;;;;;13.70;4.60;;;;;;;18.12;75.55;100362.50;5026670;28;20360;-57
2022/07/14 03:52:20;;;;;;;8.97;4.07;;;;;;;18.40;74.62;100393.84;5027042;28;20280;-57
2022/07/14 03:54:53;;;;;;;7.83;3.43;;;;;;;18.25;74.92;100379.56;5025511;28;20325;-57
2022/07/14 03:57:24;;;;;;;7.03;2.93;;;;;;;18.37;75.61;100362.25;5026537;28;20332;-57
2022/07/14 03:59:55;;;;;;;11.40;3.57;;;;;;;18.03;75.14;100300.34;5026867;28;20285;-58
2022/07/14 04:02:25;;;;;;;7.37;2.80;;;;;;;18.63;74.73;100389.25;5026639;28;20292;-57
2022/07/14 04:04:56;;;;;;;6.97;2.73;;;;;;;18.64;74.24;100396.25;5024812;28;20311;-58
2022/07/14 04:07:27;;;;;;;7.47;3.10;;;;;;;18.69;74.71;100396.91;5025949;28;20285;-57
2022/07/14 04:09:59;;;;;;;4.73;3.30;;;;;;;18.40;74.09;100396.50;5025927;28;21151;-57
2022/07/14 04:12:30;;;;;;;4.53;2.60;;;;;;;18.30;75.19;100387.28;5026014;28;20527;-57
2022/07/14 04:15:07;;;;;;;7.40;3.10;;;;;;;18.46;75.72;100387.41;5026106;28;20359;-57
2022/07/14 04:17:38;;;;;;;4.83;2.33;;;;;;;18.10;74.29;100359.09;5023847;28;20786;-57
2022/07/14 04:20:09;;;;;;;10.10;2.30;;;;;;;18.43;76.04;100387.56;5025577;28;20363;-57
2022/07/14 04:22:40;;;;;;;7.07;2.40;;;;;;;18.42;74.87;100397.28;5024800;28;20332;-56
2022/07/14 04:25:13;;;;;;;11.47;3.00;;;;;;;18.60;74.93;100384.13;5026003;28;20291;-55
2022/07/14 04:27:44;;;;;;;15.23;2.40;;;;;;;18.68;73.87;100382.81;5025509;28;20712;-57
2022/07/14 04:30:15;;;;;;;9.43;2.40;;;;;;;18.66;74.46;100378.53;5024885;28;20297;-56
2022/07/14 04:32:46;;;;;;;5.90;2.43;;;;;;;18.65;74.50;100371.53;5023455;28;20339;-57
2022/07/14 04:35:17;;;;;;;8.70;2.83;;;;;;;18.54;75.11;100391.38;5024922;28;20370;-55
2022/07/14 04:37:47;;;;;;;6.30;2.50;;;;;;;18.24;74.49;100393.69;5026020;28;20355;-57
2022/07/14 04:40:20;;;;;;;3.63;1.83;;;;;;;18.19;73.67;100393.03;5025076;28;20295;-57
2022/07/14 04:42:50;;;;;;;15.17;2.60;;;;;;;18.33;76.30;100403.00;5025436;28;20372;-57
2022/07/14 04:45:22;;;;;;;4.57;2.17;;;;;;;18.61;74.64;100385.81;5025172;28;20291;-57
2022/07/14 04:47:53;;;;;;;7.13;1.97;;;;;;;18.78;73.06;100383.25;5025582;28;20334;-56
2022/07/14 04:53:11;;;;;;;6.17;2.10;;;;;;;18.44;73.80;100384.81;5025341;28;20295;-57
2022/07/14 04:55:43;;;;;;;3.53;1.57;;;;;;;18.37;72.72;100383.41;5021676;28;21032;-57
2022/07/14 04:58:14;;;;;;;8.63;2.10;;;;;;;18.18;73.40;100383.41;5022723;28;20303;-58
2022/07/14 05:00:45;;;;;;;9.73;2.53;;;;;;;18.36;74.03;100383.47;5023610;28;20304;-57
2022/07/14 05:03:16;;;;;;;8.10;2.17;;;;;;;18.69;73.49;100373.06;5023446;28;20384;-57
2022/07/14 05:05:46;;;;;;;12.90;2.20;;;;;;;18.73;73.45;100374.66;5024426;28;20379;-58
2022/07/14 05:08:17;;;;;;;8.47;2.50;;;;;;;18.85;72.00;100379.38;5025443;28;20320;-58
2022/07/14 05:10:49;;;;;;;8.73;1.90;;;;;;;18.68;71.63;100372.22;5025180;28;20331;-58
2022/07/14 05:13:20;;;;;;;4.77;1.80;;;;;;;18.68;71.27;100361.63;5020494;28;20323;-56
2022/07/14 05:15:50;;;;;;;6.80;2.20;;;;;;;18.46;72.43;100366.25;5024092;28;20312;-56
2022/07/14 05:18:21;;;;;;;4.17;2.10;;;;;;;18.70;72.94;100369.50;5025427;28;20288;-55
2022/07/14 05:20:52;;;;;;;18.73;2.63;;;;;;;18.84;72.97;100375.00;5026075;28;20284;-57
2022/07/14 05:23:30;;;;;;;15.13;2.67;;;;;;;18.83;72.57;100380.38;5026129;28;20414;-57
2022/07/14 05:26:02;;;;;;;9.37;2.43;;;;;;;18.74;71.75;100376.34;5025420;28;20311;-57
2022/07/14 05:28:33;;;;;;;5.20;2.37;;;;;;;18.69;72.14;100373.06;5025316;28;20316;-57
2022/07/14 05:31:03;;;;;;;4.00;1.80;;;;;;;18.28;72.12;100367.97;5024683;28;20293;-58
2022/07/14 05:33:34;;;;;;;11.67;2.47;;;;;;;18.44;73.66;100384.81;5025018;28;20291;-58
2022/07/14 05:36:06;;;;;;;2.50;1.60;;;;;;;18.59;71.87;100379.75;5023296;28;20370;-57
2022/07/14 05:38:36;;;;;;;3.37;2.00;;;;;;;18.38;72.25;100382.47;5022979;28;20387;-57
2022/07/14 05:41:09;;;;;;;4.37;1.73;;;;;;;18.25;73.52;100373.41;5024962;28;20307;-56
2022/07/14 05:43:39;;;;;;;11.13;2.47;;;;;;;18.29;74.22;100380.25;5022235;28;20308;-55
2022/07/14 05:46:11;;;;;;;5.30;1.70;;;;;;;18.18;73.33;100350.81;5022002;28;20308;-58
2022/07/14 05:48:42;;;;;;;6.93;2.10;;;;;;;18.23;73.96;100380.56;5023956;28;20288;-57
2022/07/14 05:51:14;;;;;;;4.97;1.73;;;;;;;18.19;73.56;100368.38;5025446;28;20292;-58
2022/07/14 05:53:46;;;;;;;4.70;1.80;;;;;;;18.11;73.34;100345.78;5025079;28;20288;-59
2022/07/14 05:56:21;;;;;;;3.13;1.80;;;;;;;18.37;72.83;100374.59;5025061;28;20308;-57
2022/07/14 05:58:52;;;;;;;5.50;1.97;;;;;;;18.47;73.18;100368.81;5024863;28;20312;-58
2022/07/14 06:01:22;;;;;;;7.07;1.70;;;;;;;18.74;72.23;100376.34;5025016;28;20355;-58
2022/07/14 06:03:57;;;;;;;4.53;1.97;;;;;;;18.84;71.27;100377.66;5025249;28;20284;-58
2022/07/14 06:06:28;;;;;;;7.07;2.10;;;;;;;18.92;71.29;100372.84;5024940;28;20481;-58
2022/07/14 06:08:58;;;;;;;4.77;2.13;;;;;;;18.72;72.28;100372.91;5023762;28;20327;-58
2022/07/14 06:11:31;;;;;;;10.30;2.17;;;;;;;18.90;71.87;100371.22;5024723;28;20497;-57
2022/07/14 06:14:01;;;;;;;5.47;2.00;;;;;;;18.78;71.86;100367.38;5025338;28;20316;-58
2022/07/14 06:16:32;;;;;;;11.60;2.10;;;;;;;18.54;71.87;100370.22;5024534;28;20549;-57
2022/07/14 06:19:03;;;;;;;6.30;1.87;;;;;;;18.40;73.15;100356.81;5027533;28;20285;-58
2022/07/14 06:21:40;;;;;;;4.60;1.90;;;;;;;18.19;73.43;100353.38;5028907;28;20351;-55
2022/07/14 06:24:12;;;;;;;5.43;2.20;;;;;;;18.38;74.08;100347.25;5028636;28;20363;-58
2022/07/14 06:26:44;;;;;;;7.90;2.10;;;;;;;18.25;74.13;100353.09;5028767;28;20347;-60
2022/07/14 06:29:15;;;;;;;6.07;1.80;;;;;;;18.33;73.88;100350.09;5028400;28;20281;-57
2022/07/14 06:31:46;;;;;;;8.37;2.30;;;;;;;18.44;72.05;100347.78;5028630;28;20495;-56
2022/07/14 06:34:16;;;;;;;3.87;1.90;;;;;;;18.15;73.53;100356.25;5028700;28;20600;-57
2022/07/14 06:36:47;;;;;;;5.87;2.30;;;;;;;18.06;74.61;100342.50;5028388;28;20802;-57
2022/07/14 06:39:18;;;;;;;10.97;1.93;;;;;;;18.00;74.24;100341.94;5028616;28;20510;-57
2022/07/14 06:41:50;;;;;;;8.37;1.93;;;;;;;18.27;73.69;100342.44;5028229;28;20292;-58
2022/07/14 06:44:21;;;;;;;4.73;1.70;;;;;;;18.31;72.77;100336.06;5028355;28;20359;-56
2022/07/14 06:46:55;;;;;;;6.27;2.07;;;;;;;18.52;73.07;100337.72;5028238;28;20583;-58
2022/07/14 06:49:26;;;;;;;5.70;1.83;;;;;;;18.89;73.05;100333.28;5028347;28;20281;-55
2022/07/14 06:51:57;;;;;;;5.33;1.40;;;;;;;19.06;70.75;100307.75;5028128;28;20293;-58
2022/07/14 06:54:28;;;;;;;11.53;1.73;;;;;;;19.31;70.31;100318.78;5026736;28;20295;-57
2022/07/14 06:57:00;;;;;;;4.03;1.80;;;;;;;19.49;69.77;100316.13;5027733;28;20304;-57
2022/07/14 06:59:31;;;;;;;10.87;2.03;;;;;;;19.56;69.37;100318.38;5027598;28;20292;-57
2022/07/14 07:02:01;;;;;;;13.30;1.90;;;;;;;19.50;69.77;100318.69;5027927;28;20277;-57
2022/07/14 07:04:32;;;;;;;13.93;1.97;;;;;;;19.24;69.27;100322.69;5027294;28;20281;-57
2022/07/14 07:07:03;;;;;;;4.23;1.70;;;;;;;19.08;70.35;100309.38;5027636;28;20347;-59
2022/07/14 07:09:33;;;;;;;10.43;1.80;;;;;;;19.18;70.98;100315.06;5026794;28;20284;-57
2022/07/14 07:12:06;;;;;;;4.73;2.07;;;;;;;19.14;69.22;100290.50;5028067;28;20355;-57
2022/07/14 07:14:38;;;;;;;6.07;1.63;;;;;;;19.40;70.13;100318.31;5027180;28;20302;-57
2022/07/14 07:17:08;;;;;;;4.80;2.00;;;;;;;19.75;68.89;100318.28;5027573;28;20543;-58
2022/07/14 07:19:39;;;;;;;4.23;1.50;;;;;;;19.89;67.88;100308.72;5026274;28;20348;-57
2022/07/14 07:22:10;;;;;;;41.57;2.90;;;;;;;19.75;67.43;100318.28;5027767;28;20316;-57
2022/07/14 07:24:41;;;;;;;3.07;1.50;;;;;;;19.61;66.52;100323.44;5027826;28;20352;-57
2022/07/14 07:27:13;;;;;;;2.53;1.60;;;;;;;19.80;68.09;100329.50;5027448;28;20311;-58
2022/07/14 07:29:43;;;;;;;8.03;1.40;;;;;;;20.00;66.74;100311.66;5026587;28;20449;-58
2022/07/14 07:32:14;;;;;;;15.63;1.87;;;;;;;19.80;66.37;100300.34;5027484;28;20312;-59
2022/07/14 07:34:45;;;;;;;9.03;1.70;;;;;;;19.46;66.88;100316.28;5027851;28;20355;-58
2022/07/14 07:37:15;;;;;;;4.37;1.90;;;;;;;19.05;67.44;100258.38;5027545;28;20304;-58
2022/07/14 07:39:59;;;;;;;6.40;1.77;;;;;;;19.39;66.37;100332.53;5027339;28;20588;-57
2022/07/14 07:42:31;;;;;;;4.70;0.90;;;;;;;19.19;66.91;100330.03;5027449;28;20304;-58
2022/07/14 07:45:02;;;;;;;7.47;1.80;;;;;;;19.22;67.81;100335.19;5027073;28;20355;-58
2022/07/14 07:47:33;;;;;;;5.03;1.10;;;;;;;19.05;68.13;100332.53;5027107;28;20363;-57
2022/07/14 07:50:04;;;;;;;6.40;1.23;;;;;;;18.83;69.32;100333.59;5027379;28;20931;-58
2022/07/14 07:52:35;;;;;;;4.33;0.97;;;;;;;18.72;70.63;100319.97;5027253;28;20307;-58
2022/07/14 07:55:10;;;;;;;9.37;0.97;;;;;;;18.58;70.07;100314.53;5026882;28;20281;-58
2022/07/14 07:57:56;;;;;;;3.60;1.00;;;;;;;18.24;72.01;100324.06;5026883;28;20308;-60
2022/07/14 08:00:27;;;;;;;4.23;0.90;;;;;;;18.01;72.76;100311.94;5026517;28;20053;-57
2022/07/14 08:03:00;;;;;;;7.13;1.60;;;;;;;18.03;72.74;100325.94;5025319;28;20320;-58
2022/07/14 08:05:32;;;;;;;3.63;0.90;;;;;;;17.71;73.74;100324.72;5025123;28;20456;-58
2022/07/14 08:08:17;;;;;;;9.57;1.47;;;;;;;17.50;74.63;100332.69;5025698;28;20635;-59
2022/07/14 08:10:48;;;;;;;3.43;1.00;;;;;;;17.35;75.10;100330.72;5025470;28;20284;-58
2022/07/14 08:13:20;;;;;;;5.10;1.40;;;;;;;17.16;76.46;100328.84;5025622;28;20380;-57
2022/07/14 08:15:51;;;;;;;3.43;1.10;;;;;;;16.97;76.53;100322.63;5025556;28;20312;-59
2022/07/14 08:18:22;;;;;;;5.70;1.30;;;;;;;16.96;76.64;100332.31;5025828;28;20273;-59
2022/07/14 08:20:53;;;;;;;4.03;1.40;;;;;;;16.91;76.89;100328.16;5025477;28;20500;-57
2022/07/14 08:23:26;;;;;;;3.40;1.10;;;;;;;17.05;76.68;100336.38;5024341;28;20372;-57
2022/07/14 08:25:57;;;;;;;6.93;1.97;;;;;;;17.12;76.26;100343.09;5026264;28;20304;-58
2022/07/14 08:28:29;;;;;;;24.37;2.60;;;;;;;17.12;76.43;100343.09;5023255;28;20482;-59
2022/07/14 08:31:00;;;;;;;10.80;1.57;;;;;;;17.16;75.97;100352.63;5026154;28;20356;-58
2022/07/14 08:33:31;;;;;;;5.80;1.20;;;;;;;17.16;75.18;100355.25;5026339;28;20296;-58
2022/07/14 08:36:02;;;;;;;2.80;1.00;;;;;;;17.06;74.54;100359.22;5026567;28;20316;-58
2022/07/14 08:38:33;;;;;;;6.30;1.57;;;;;;;16.87;76.17;100345.03;5025738;28;20297;-58
2022/07/14 08:41:04;;;;;;;6.93;2.07;;;;;;;16.79;77.03;100354.13;5025888;28;20309;-58
2022/07/14 08:43:37;;;;;;;3.47;1.50;;;;;;;16.77;77.27;100342.78;5025881;28;20307;-58
2022/07/14 08:46:09;;;;;;;7.77;1.90;;;;;;;16.77;77.71;100358.59;5026183;28;20498;-59
2022/07/14 08:48:41;;;;;;;9.60;2.00;;;;;;;16.59;78.30;100359.31;5025945;28;20338;-58
2022/07/14 08:51:11;;;;;;;9.17;1.97;;;;;;;16.39;79.09;100355.69;5025865;28;20281;-58
2022/07/14 08:53:44;;;;;;;8.03;2.23;;;;;;;16.39;79.36;100354.81;5025900;28;20312;-59
2022/07/14 08:56:15;;;;;;;3.87;1.73;;;;;;;16.20;80.20;100373.16;5025959;28;20285;-58
2022/07/14 08:58:47;;;;;;;11.07;1.80;;;;;;;16.06;80.91;100372.81;5025740;28;20351;-59
2022/07/14 09:01:18;;;;;;;5.83;1.90;;;;;;;16.02;81.08;100372.03;5026193;28;20289;-59
2022/07/14 09:03:50;;;;;;;9.90;1.87;;;;;;;16.10;81.21;100371.75;5026145;28;20557;-58
2022/07/14 09:06:50;;;;;;;6.70;2.03;;;;;;;16.11;80.38;100368.22;5025314;28;20284;-59
2022/07/14 09:09:23;;;;;;;8.47;2.30;;;;;;;16.18;80.72;100369.72;5025836;28;20394;-58
2022/07/14 09:12:00;;;;;;;13.10;2.10;;;;;;;16.17;80.56;100373.25;5025594;28;20284;-58
2022/07/14 09:15:44;;;;;;;17.37;2.60;;;;;;;16.13;80.55;100361.13;5025390;28;20482;-60
2022/07/14 09:17:26;;;;;;;8.80;2.37;;;;;;;15.92;80.24;100374.16;5025046;28;20509;-58
2022/07/14 09:20:11;;;;;;;15.67;3.43;;;;;;;15.83;81.22;100371.88;5025222;28;20292;-58
2022/07/14 09:22:44;;;;;;;12.93;4.37;;;;;;;15.75;81.51;100363.41;5025320;28;20277;-59
2022/07/14 09:25:16;;;;;;;5.13;2.90;;;;;;;15.77;81.94;100379.97;5025584;28;20287;-58
2022/07/14 09:27:48;;;;;;;5.03;2.00;;;;;;;15.63;82.38;100372.56;5025873;28;20651;-59
2022/07/14 09:30:20;;;;;;;6.23;2.30;;;;;;;15.46;83.64;100385.47;5026251;28;20303;-58
2022/07/14 09:32:53;;;;;;;15.57;4.07;;;;;;;15.45;83.92;100379.34;5025577;28;20293;-58
2022/07/14 09:35:25;;;;;;;7.57;3.90;;;;;;;15.50;84.21;100377.41;5025541;28;20299;-58
2022/07/14 09:37:57;;;;;;;5.97;2.07;;;;;;;15.58;83.82;100378.91;5025123;28;20315;-59
2022/07/14 09:40:30;;;;;;;5.17;2.20;;;;;;;15.54;83.86;100376.34;5025128;28;20304;-59
2022/07/14 09:43:05;;;;;;;8.30;2.70;;;;;;;15.43;84.25;100378.53;5025095;28;20269;-59
2022/07/14 09:45:39;;;;;;;7.10;2.67;;;;;;;15.36;84.72;100371.75;5022990;28;20604;-59
2022/07/14 09:48:21;;;;;;;8.20;3.07;;;;;;;15.25;85.71;100366.84;5025019;28;20321;-58
2022/07/14 09:50:56;;;;;;;7.77;2.37;;;;;;;15.13;86.45;100366.41;5025145;28;20268;-59
2022/07/14 09:53:29;;;;;;;6.17;2.40;;;;;;;15.06;86.93;100371.88;5027721;28;20375;-58
2022/07/14 09:56:01;;;;;;;15.80;2.93;;;;;;;14.95;86.86;100344.19;5029357;28;20757;-59
2022/07/14 09:58:54;;;;;;;19.67;2.70;;;;;;;15.13;87.03;100372.53;5035019;28;20327;-58
2022/07/14 10:01:27;;;;;;;9.83;3.00;;;;;;;15.02;87.41;100364.13;5028117;28;20634;-59
2022/07/14 10:04:00;;;;;;;5.00;3.00;;;;;;;14.95;88.04;100360.84;5027636;28;20289;-60
2022/07/14 10:06:31;;;;;;;12.63;3.87;;;;;;;14.88;88.70;100364.59;5028214;28;20295;-59
2022/07/14 10:09:11;;;;;;;10.47;3.53;;;;;;;14.98;88.98;100360.75;5029032;28;20287;-57
2022/07/14 10:11:44;;;;;;;7.73;3.13;;;;;;;14.97;89.21;100358.16;5029199;28;20477;-57
2022/07/14 10:14:16;;;;;;;8.23;3.10;;;;;;;14.80;88.71;100342.91;5028091;28;20300;-58
2022/07/14 10:16:49;;;;;;;7.03;3.10;;;;;;;14.78;89.35;100371.06;5028659;28;20390;-58
2022/07/14 10:19:20;;;;;;;6.80;2.53;;;;;;;14.81;89.45;100379.69;5029361;28;20535;-58
2022/07/14 10:21:52;;;;;;;7.50;2.90;;;;;;;15.00;89.82;100376.47;5027705;28;20300;-58
2022/07/14 10:24:24;;;;;;;17.50;3.87;;;;;;;15.17;89.43;100374.13;5028578;28;20359;-57
2022/07/14 10:26:56;;;;;;;8.77;3.27;;;;;;;15.05;88.89;100358.75;5026464;28;20395;-58
2022/07/14 10:29:28;;;;;;;8.57;3.50;;;;;;;14.94;89.17;100372.25;5026773;28;20287;-58
2022/07/14 10:32:34;;;;;;;8.43;3.27;;;;;;;14.69;90.32;100381.84;5027502;28;20534;-57
2022/07/14 10:35:28;;;;;;;14.20;3.50;;;;;;;14.69;91.01;100387.13;5028449;28;20470;-58
2022/07/14 10:38:24;;;;;;;13.77;3.20;;;;;;;14.73;91.01;100378.22;5028385;28;20301;-58
2022/07/14 10:41:03;;;;;;;15.03;3.53;;;;;;;14.84;91.03;100386.63;5026207;28;20351;-57
2022/07/14 10:43:59;;;;;;;10.97;3.03;;;;;;;14.87;90.38;100386.53;5028226;28;20519;-58
2022/07/14 10:46:40;;;;;;;6.83;3.27;;;;;;;14.96;90.10;100391.50;5027572;28;20292;-58
2022/07/14 10:49:14;;;;;;;14.77;3.67;;;;;;;15.03;90.17;100387.75;5028402;28;20289;-58
2022/07/14 10:51:46;;;;;;;7.07;3.50;;;;;;;15.07;89.57;100386.72;5027960;28;20285;-58
2022/07/14 10:54:24;;;;;;;6.37;3.30;;;;;;;14.87;89.03;100386.53;5027851;28;20300;-58
2022/07/14 10:57:17;;;;;;;16.07;3.77;;;;;;;14.91;88.94;100403.94;5027940;28;20336;-58
2022/07/14 10:59:48;;;;;;;9.13;3.20;;;;;;;14.89;89.23;100396.09;5027528;28;20342;-58
2022/07/14 11:02:37;;;;;;;8.33;2.63;;;;;;;14.86;88.76;100395.34;5026545;28;20285;-59
2022/07/14 11:05:15;;;;;;;6.50;2.75;;;;;;;14.86;88.61;100411.13;5027727;28;20312;-58
2022/07/14 11:07:50;;;;;;;6.73;2.73;;;;;;;14.95;88.54;100410.84;5027625;28;20068;-58
2022/07/14 11:11:04;;;;;;;9.17;2.90;;;;;;;15.08;88.28;100417.41;5027974;28;20553;-58
2022/07/14 11:13:35;;;;;;;11.20;3.20;;;;;;;15.17;87.78;100425.91;5024678;28;20322;-58
2022/07/14 11:16:06;;;;;;;12.30;3.40;;;;;;;15.26;87.56;100428.25;5026343;28;20509;-59
2022/07/14 11:18:42;;;;;;;9.93;3.63;;;;;;;15.31;87.27;100426.31;5024827;28;20313;-58
2022/07/14 11:21:18;;;;;;;13.07;5.00;;;;;;;15.35;86.84;100420.06;5026813;28;20623;-58
2022/07/14 11:23:55;;;;;;;5.83;3.40;;;;;;;15.30;86.91;100421.97;5025681;28;20295;-60
2022/07/14 11:26:40;;;;;;;7.10;3.47;;;;;;;15.29;86.78;100430.78;5025092;28;20285;-57
2022/07/14 11:29:33;;;;;;;9.40;3.53;;;;;;;15.05;86.65;100412.25;5024225;28;20344;-58
2022/07/14 11:32:04;;;;;;;5.40;2.80;;;;;;;14.96;86.70;100425.69;5025199;28;20367;-60
2022/07/14 11:40:45;;;;;;;10.70;5.17;;;;;;;15.00;87.40;100431.72;5123512;27;20346;-59
2022/07/14 11:43:44;;;;;;;8.83;4.63;;;;;;;14.95;87.10;100442.41;5103891;28;20617;-59
2022/07/14 11:46:15;;;;;;;7.93;2.88;;;;;;;14.83;87.15;100442.78;5080464;28;20295;-58
2022/07/14 11:48:50;;;;;;;8.23;3.40;;;;;;;14.69;87.72;100435.31;5104882;28;20308;-59
2022/07/14 11:51:24;;;;;;;6.83;2.97;;;;;;;14.80;87.94;100437.59;5121249;28;20306;-58
2022/07/14 11:53:56;;;;;;;12.67;3.17;;;;;;;14.92;87.97;100445.13;5121373;28;20351;-58
2022/07/14 11:56:30;;;;;;;10.13;5.90;;;;;;;14.97;87.81;100435.31;5121313;28;20741;-58
2022/07/14 11:59:03;;;;;;;12.63;6.30;;;;;;;15.00;87.45;100450.13;5120422;28;20299;-58
2022/07/14 12:01:36;;;;;;;6.87;3.50;;;;;;;14.99;87.38;100449.28;5121544;28;20280;-58
2022/07/14 12:04:11;;;;;;;9.93;3.37;;;;;;;15.13;87.05;100455.91;5122627;28;20289;-58
2022/07/14 12:06:47;;;;;;;6.27;2.40;;;;;;;15.04;86.83;100447.38;5122436;28;20285;-59
2022/07/14 12:09:32;;;;;;;8.80;2.90;;;;;;;15.07;87.00;100452.53;5122337;28;20473;-58